createdAt,value
2022-09-05T00:00:53.449Z,69.30
2022-09-05T00:06:01.730Z,69.01
2022-09-05T00:11:42.116Z,70.03
2022-09-05T00:16:30.264Z,68.38
2022-09-05T00:24:21.367Z,67.81
2022-09-05T00:26:50.276Z,68.18
2022-09-05T00:31:55.438Z,67.85
2022-09-05T00:36:49.215Z,67.58
2022-09-05T00:41:40.362Z,68.00
2022-09-05T00:46:35.784Z,67.82
2022-09-05T00:51:34.807Z,68.08
2022-09-05T00:56:42.714Z,67.58
2022-09-05T01:01:41.765Z,68.07
2022-09-05T01:06:37.042Z,68.35
2022-09-05T01:11:38.116Z,68.07
2022-09-05T01:16:32.119Z,68.49
2022-09-05T01:21:40.787Z,68.53
2022-09-05T01:26:50.921Z,69.34
2022-09-05T01:31:48.249Z,69.40
2022-09-05T01:36:58.499Z,69.57
2022-09-05T01:41:52.754Z,70.08
2022-09-05T01:46:47.477Z,69.85
2022-09-05T01:51:43.380Z,70.30
2022-09-05T01:56:38.818Z,70.49
2022-09-05T02:01:33.389Z,70.56
2022-09-05T02:06:37.137Z,71.10
2022-09-05T02:11:41.592Z,70.88
2022-09-05T02:16:38.458Z,70.55
2022-09-05T02:21:56.140Z,70.82
2022-09-05T02:26:57.423Z,71.54
2022-09-05T02:31:51.245Z,71.73
2022-09-05T02:36:47.462Z,71.71
2022-09-05T02:45:07.954Z,71.88
2022-09-05T02:46:58.719Z,71.97
2022-09-05T02:57:26.343Z,72.85
2022-09-05T02:57:36.377Z,72.49
2022-09-05T03:02:32.553Z,72.43
2022-09-05T03:07:36.846Z,73.32
2022-09-05T03:12:41.702Z,72.95
2022-09-05T03:17:49.681Z,74.23
2022-09-05T03:22:55.043Z,73.73
2022-09-05T03:28:04.297Z,74.04
2022-09-05T03:33:09.844Z,74.30
2022-09-05T03:38:16.092Z,75.89
2022-09-05T03:43:20.296Z,74.34
2022-09-05T03:48:28.838Z,75.90
2022-09-05T03:57:15.710Z,75.70
2022-09-05T03:59:10.663Z,75.74
2022-09-05T04:08:15.900Z,75.63
2022-09-05T04:09:37.269Z,75.62
2022-09-05T04:14:36.154Z,76.20
2022-09-05T04:19:33.219Z,75.64
2022-09-05T04:24:28.392Z,76.80
2022-09-05T04:29:21.258Z,76.83
2022-09-05T04:34:30.689Z,76.44
2022-09-05T04:39:30.683Z,77.55
2022-09-05T04:44:26.789Z,76.99
2022-09-05T04:49:19.210Z,77.53
2022-09-05T04:54:20.661Z,76.76
2022-09-05T05:01:40.702Z,76.96
2022-09-05T05:06:10.665Z,77.35
2022-09-05T05:09:44.880Z,77.31
2022-09-05T05:18:06.171Z,77.71
2022-09-05T05:19:57.844Z,78.49
2022-09-05T05:25:06.807Z,78.73
2022-09-05T05:30:27.126Z,79.07
2022-09-05T05:35:19.224Z,79.35
2022-09-05T05:40:11.867Z,79.46
2022-09-05T05:45:02.902Z,79.29
2022-09-05T05:50:02.735Z,78.71
2022-09-05T05:55:07.355Z,77.79
2022-09-05T06:00:14.812Z,79.89
2022-09-05T06:05:29.629Z,78.97
2022-09-05T06:15:06.531Z,79.85
2022-09-05T06:16:09.016Z,79.12
2022-09-05T06:22:06.006Z,78.75
2022-09-05T06:26:41.643Z,78.61
2022-09-05T06:31:45.321Z,79.50
2022-09-05T06:36:44.016Z,78.68
2022-09-05T06:41:40.694Z,78.37
2022-09-05T06:46:55.084Z,78.61
2022-09-05T06:52:28.570Z,78.66
2022-09-05T06:57:23.362Z,77.40
2022-09-05T07:02:23.789Z,77.80
2022-09-05T07:07:42.450Z,78.51
2022-09-05T07:12:42.139Z,79.09
2022-09-05T07:18:06.238Z,76.92
2022-09-05T07:23:25.780Z,77.52
2022-09-05T07:28:28.861Z,77.03
2022-09-05T07:33:24.713Z,75.08
2022-09-05T07:38:20.768Z,73.66
2022-09-05T07:43:18.231Z,73.85
2022-09-05T07:48:13.270Z,71.33
2022-09-05T07:56:52.410Z,70.18
2022-09-05T07:58:21.871Z,71.29
2022-09-05T08:03:13.583Z,68.91
2022-09-05T08:08:05.829Z,68.91
2022-09-05T08:13:23.661Z,68.97
2022-09-05T08:18:15.982Z,68.59
2022-09-05T08:23:10.077Z,68.24
2022-09-05T08:28:06.407Z,67.47
2022-09-05T08:33:10.180Z,66.80
2022-09-05T08:38:03.461Z,66.27
2022-09-05T08:46:36.772Z,65.27
2022-09-05T08:48:14.394Z,64.78
2022-09-05T08:53:28.161Z,64.04
2022-09-05T08:58:36.074Z,62.07
2022-09-05T09:03:28.819Z,61.87
2022-09-05T09:08:27.010Z,61.28
2022-09-05T09:13:26.783Z,59.93
2022-09-05T09:18:17.823Z,58.83
2022-09-05T09:23:09.023Z,57.27
2022-09-05T09:28:50.651Z,55.25
2022-09-05T09:33:46.213Z,51.44
2022-09-05T09:38:41.334Z,51.32
2022-09-05T09:43:34.823Z,51.26
2022-09-05T09:48:48.334Z,49.13
2022-09-05T09:53:47.733Z,46.82
2022-09-05T09:58:45.808Z,49.69
2022-09-05T10:10:11.525Z,47.81
2022-09-05T10:10:54.005Z,46.88
2022-09-05T10:14:49.740Z,45.82
2022-09-05T10:20:10.028Z,46.63
2022-09-05T10:25:18.912Z,46.57
2022-09-05T10:30:13.909Z,43.85
2022-09-05T10:35:21.112Z,47.52
2022-09-05T10:40:16.552Z,47.37
2022-09-05T10:45:08.183Z,43.48
2022-09-05T10:50:04.998Z,45.99
2022-09-05T10:55:13.940Z,45.16
2022-09-05T11:02:23.156Z,42.93
2022-09-05T11:05:27.488Z,42.79
2022-09-05T11:10:20.848Z,44.37
2022-09-05T11:15:25.224Z,43.67
2022-09-05T11:20:35.378Z,44.56
2022-09-05T11:25:40.494Z,43.91
2022-09-05T11:30:39.857Z,40.66
2022-09-05T11:40:02.213Z,40.65
2022-09-05T11:41:08.427Z,40.08
2022-09-05T11:46:22.379Z,40.05
2022-09-05T11:51:33.847Z,37.39
2022-09-05T11:56:44.069Z,40.08
2022-09-05T12:01:44.255Z,37.90
2022-09-05T12:06:49.655Z,36.42
2022-09-05T12:11:47.124Z,40.78
2022-09-05T12:16:52.283Z,38.22
2022-09-05T12:21:50.418Z,39.81
2022-09-05T12:27:41.391Z,36.40
2022-09-05T12:33:34.009Z,35.45
2022-09-05T12:40:16.646Z,36.37
2022-09-05T12:42:28.182Z,36.20
2022-09-05T12:47:26.427Z,38.81
2022-09-05T12:52:21.840Z,35.99
2022-09-05T13:01:09.551Z,34.54
2022-09-05T13:03:15.334Z,39.38
2022-09-05T13:07:44.949Z,37.77
2022-09-05T13:14:49.488Z,35.04
2022-09-05T13:17:53.283Z,39.52
2022-09-05T13:22:50.966Z,35.63
2022-09-05T13:27:47.429Z,43.44
2022-09-05T13:38:06.156Z,39.29
2022-09-05T13:38:29.073Z,38.69
2022-09-05T13:43:09.725Z,40.31
2022-09-05T13:48:18.868Z,36.98
2022-09-05T13:53:17.975Z,39.72
2022-09-05T13:58:10.753Z,39.01
2022-09-05T14:03:39.027Z,39.12
2022-09-05T14:08:40.643Z,38.32
2022-09-05T14:13:35.587Z,39.20
2022-09-05T14:18:27.473Z,39.96
2022-09-05T14:23:18.410Z,39.69
2022-09-05T14:28:16.165Z,40.20
2022-09-05T14:37:48.387Z,38.00
2022-09-05T14:38:42.148Z,39.80
2022-09-05T14:43:56.620Z,39.67
2022-09-05T14:48:57.090Z,38.38
2022-09-05T14:54:00.705Z,38.55
2022-09-05T15:02:48.384Z,33.68
2022-09-05T15:04:42.391Z,33.88
2022-09-05T15:12:14.138Z,37.64
2022-09-05T15:14:56.305Z,34.23
2022-09-05T15:20:06.737Z,37.35
2022-09-05T15:25:12.147Z,34.56
2022-09-05T15:30:11.940Z,37.65
2022-09-05T15:35:03.613Z,38.83
2022-09-05T15:40:04.185Z,39.37
2022-09-05T15:45:09.851Z,40.54
2022-09-05T15:50:05.206Z,39.10
2022-09-05T15:54:57.917Z,39.54
2022-09-05T15:59:50.500Z,39.16
2022-09-05T16:10:27.037Z,40.58
2022-09-05T16:10:43.464Z,40.56
2022-09-05T16:17:26.431Z,42.72
2022-09-05T16:23:30.905Z,42.00
2022-09-05T16:25:46.668Z,41.50
2022-09-05T16:30:38.226Z,43.04
2022-09-05T16:35:29.346Z,44.12
2022-09-05T16:40:22.897Z,43.83
2022-09-05T16:45:20.636Z,44.18
2022-09-05T16:50:16.644Z,44.64
2022-09-05T16:55:12.261Z,44.04
2022-09-05T17:00:03.770Z,45.44
2022-09-05T17:05:06.305Z,46.05
2022-09-05T17:09:59.205Z,45.45
2022-09-05T17:14:53.230Z,47.30
2022-09-05T17:20:05.925Z,48.43
2022-09-05T17:29:23.728Z,47.81
2022-09-05T17:35:42.806Z,48.46
2022-09-05T17:40:51.371Z,49.85
2022-09-05T17:45:46.952Z,49.81
2022-09-05T17:50:49.595Z,49.79
2022-09-05T17:55:55.373Z,49.75
2022-09-05T18:01:05.534Z,46.65
2022-09-05T18:06:05.644Z,44.00
2022-09-05T18:11:02.310Z,49.17
2022-09-05T18:16:12.406Z,55.60
2022-09-05T18:21:21.020Z,62.26
2022-09-05T18:26:20.964Z,62.18
2022-09-05T18:31:26.140Z,67.43
2022-09-05T18:36:48.751Z,74.37
2022-09-05T18:41:42.818Z,77.16
2022-09-05T18:46:34.919Z,75.52
2022-09-05T18:51:26.372Z,73.53
2022-09-05T18:56:30.321Z,72.90
2022-09-05T19:01:28.461Z,73.42
2022-09-05T19:06:35.589Z,71.94
2022-09-05T19:11:32.493Z,73.14
2022-09-05T19:16:42.157Z,70.67
2022-09-05T19:21:33.812Z,71.11
2022-09-05T19:26:23.918Z,69.36
2022-09-05T19:36:57.052Z,67.99
2022-09-05T19:37:11.974Z,72.44
2022-09-05T19:47:26.084Z,72.81
2022-09-05T19:47:37.947Z,75.19
2022-09-05T19:52:16.838Z,80.48
2022-09-05T19:57:08.001Z,81.63
2022-09-05T20:02:01.703Z,86.40
2022-09-05T20:06:53.368Z,87.65
2022-09-05T20:11:45.702Z,86.74
2022-09-05T20:16:36.882Z,90.88
2022-09-05T20:21:30.990Z,89.56
2022-09-05T20:26:23.563Z,85.03
2022-09-05T20:31:17.087Z,89.21
2022-09-05T20:43:08.621Z,89.29
2022-09-05T20:43:19.530Z,88.98
2022-09-05T20:50:11.622Z,89.61
2022-09-05T20:54:21.742Z,94.97
2022-09-05T20:57:15.105Z,98.26
2022-09-05T21:02:06.589Z,97.67
2022-09-05T21:07:10.764Z,92.43
2022-09-05T21:12:06.313Z,94.85
2022-09-05T21:17:04.854Z,100.00
2022-09-05T21:22:06.018Z,97.38
2022-09-05T21:26:55.488Z,92.74
2022-09-05T21:31:49.089Z,96.27
2022-09-05T21:36:47.100Z,100.00
2022-09-05T21:41:40.010Z,94.63
2022-09-05T21:47:43.876Z,100.00
2022-09-05T21:51:48.197Z,100.00
2022-09-05T21:59:26.028Z,100.00
2022-09-05T22:01:53.372Z,100.00
2022-09-05T22:06:48.695Z,100.00
2022-09-05T22:11:41.275Z,100.00
2022-09-05T22:16:31.855Z,100.00
2022-09-05T22:21:33.222Z,100.00
2022-09-05T22:26:25.006Z,100.00
2022-09-05T22:31:17.401Z,100.00
2022-09-05T22:36:07.005Z,100.00
2022-09-05T22:40:58.678Z,100.00
2022-09-05T22:45:48.980Z,100.00
2022-09-05T22:50:41.614Z,100.00
2022-09-05T22:55:33.586Z,100.00
2022-09-05T23:00:23.134Z,100.00
2022-09-05T23:05:13.125Z,100.00
2022-09-05T23:10:06.624Z,100.00
2022-09-05T23:14:56.311Z,100.00
2022-09-05T23:19:45.711Z,100.00
2022-09-05T23:24:35.423Z,100.00
2022-09-05T23:29:27.564Z,100.00
2022-09-05T23:34:17.029Z,100.00
2022-09-05T23:39:06.516Z,100.00
2022-09-05T23:43:56.007Z,100.00
2022-09-05T23:48:48.005Z,95.75
2022-09-05T23:53:37.978Z,94.82
2022-09-05T23:58:27.569Z,96.90
